Time;durP1;ratioP1;P1;durP2;ratioP2;P2;SDS_P1;SDS_P2;PMS_P1;PMS_P2;Temp;Humidity;BMP_temperature;BMP_pressure;BME280_temperature;BME280_humidity;BME280_pressure;Samples;Min_cycle;Max_cycle;Signal;HPM_P1;HPM_P2
2023/12/20 00:01:55;;;;;;;21.27;14.80;;;;;;;16.34;55.46;101677.31;5029925;28;20057;-42
2023/12/20 00:04:22;;;;;;;20.10;13.98;;;;;;;16.45;55.22;101669.28;5033933;28;20437;-41
2023/12/20 00:06:49;;;;;;;21.98;14.18;;;;;;;16.56;55.19;101667.56;5031043;28;20053;-41
2023/12/20 00:09:16;;;;;;;20.17;13.38;;;;;;;16.65;54.60;101666.84;5025883;28;20054;-42
2023/12/20 00:11:43;;;;;;;20.83;13.35;;;;;;;16.74;54.33;101664.28;5028596;28;20099;-41
2023/12/20 00:14:10;;;;;;;20.85;13.23;;;;;;;16.83;53.91;101668.03;5033203;28;20045;-35
2023/12/20 00:16:36;;;;;;;22.17;14.00;;;;;;;16.92;54.10;101653.03;5037522;28;20499;-36
2023/12/20 00:19:03;;;;;;;19.52;12.23;;;;;;;16.99;54.16;101643.53;5028870;28;20060;-35
2023/12/20 00:21:29;;;;;;;19.38;12.90;;;;;;;17.03;53.76;101653.00;5035003;28;20349;-35
2023/12/20 00:23:56;;;;;;;19.10;12.30;;;;;;;17.06;53.38;101651.91;5031604;28;20053;-36
2023/12/20 00:26:23;;;;;;;18.42;12.20;;;;;;;17.04;54.16;101652.00;5033933;28;20048;-35
2023/12/20 00:28:49;;;;;;;18.75;12.07;;;;;;;17.05;53.97;101661.78;5033985;28;20053;-37
2023/12/20 00:31:16;;;;;;;18.63;12.05;;;;;;;17.06;53.80;101659.94;5028763;28;20048;-37
2023/12/20 00:33:43;;;;;;;18.30;12.23;;;;;;;17.05;53.94;101659.09;5026565;28;20136;-35
2023/12/20 00:36:10;;;;;;;16.08;11.20;;;;;;;17.04;53.86;101657.38;5030557;28;20045;-36
2023/12/20 00:38:37;;;;;;;18.48;11.65;;;;;;;17.05;54.10;101659.09;5033251;28;20331;-36
2023/12/20 00:41:04;;;;;;;18.02;12.13;;;;;;;17.05;54.04;101658.25;5030879;28;20065;-37
2023/12/20 00:43:30;;;;;;;15.05;10.65;;;;;;;17.05;53.82;101660.94;5035533;28;20322;-36
2023/12/20 00:45:59;;;;;;;16.33;10.48;;;;;;;17.04;53.74;101660.03;5033498;28;20061;-36
2023/12/20 00:48:35;;;;;;;15.95;10.23;;;;;;;17.04;53.15;101660.03;5027257;28;20421;-36
2023/12/20 00:51:02;;;;;;;14.90;9.98;;;;;;;17.03;53.51;101661.88;5035584;28;20061;-42
2023/12/20 00:53:29;;;;;;;15.60;10.57;;;;;;;17.01;53.21;101649.63;5027738;28;20053;-40
2023/12/20 00:55:55;;;;;;;17.30;10.27;;;;;;;16.99;53.25;101651.56;5028409;28;20054;-41
2023/12/20 00:58:22;;;;;;;15.73;10.27;;;;;;;16.98;53.57;101644.50;5028979;28;20453;-41
2023/12/20 01:00:49;;;;;;;17.75;10.90;;;;;;;16.94;53.13;101637.69;5033972;28;20404;-41
2023/12/20 01:03:15;;;;;;;17.52;11.07;;;;;;;16.89;53.68;101645.28;5031551;28;20052;-41
2023/12/20 01:05:42;;;;;;;15.60;10.02;;;;;;;16.84;54.17;101647.44;5031360;28;20053;-41
2023/12/20 01:08:09;;;;;;;14.05;9.30;;;;;;;16.80;53.55;101659.41;5034570;28;20063;-42
2023/12/20 01:10:35;;;;;;;13.85;9.07;;;;;;;16.74;53.61;101652.72;5034504;28;20080;-41
2023/12/20 01:13:02;;;;;;;15.55;9.43;;;;;;;16.69;53.95;101653.06;5033088;28;20045;-40
2023/12/20 01:15:29;;;;;;;14.15;9.50;;;;;;;16.65;54.97;101646.28;5031854;28;20061;-41
2023/12/20 01:17:56;;;;;;;16.75;9.25;;;;;;;16.66;53.74;101645.28;5028586;28;20194;-41
2023/12/20 01:20:23;;;;;;;14.43;10.20;;;;;;;16.72;53.92;101649.28;5029967;28;20520;-40
2023/12/20 01:22:50;;;;;;;14.60;9.52;;;;;;;16.81;53.97;101653.09;5030330;28;20128;-42
2023/12/20 01:25:16;;;;;;;14.40;8.88;;;;;;;16.88;54.04;101660.47;5033023;28;20045;-41
2023/12/20 01:27:43;;;;;;;13.38;8.43;;;;;;;16.95;53.59;101652.78;5028292;28;20045;-41
2023/12/20 01:30:10;;;;;;;12.38;8.65;;;;;;;17.03;53.66;101661.03;5029611;28;20345;-42
2023/12/20 01:32:37;;;;;;;13.43;8.85;;;;;;;17.11;53.67;101665.75;5033247;28;20601;-36
2023/12/20 01:35:04;;;;;;;13.43;8.40;;;;;;;17.16;53.45;101653.66;5036841;28;20061;-36
2023/12/20 01:37:31;;;;;;;13.23;8.52;;;;;;;17.22;53.21;101652.31;5033201;28;20041;-36
2023/12/20 01:39:58;;;;;;;12.57;8.48;;;;;;;17.26;52.88;101653.78;5031633;28;20142;-36
2023/12/20 01:42:25;;;;;;;12.70;8.57;;;;;;;17.26;53.48;101651.09;5029869;28;20060;-36
2023/12/20 01:44:51;;;;;;;12.07;7.65;;;;;;;17.25;52.86;101642.19;5027893;28;20048;-35
2023/12/20 01:47:18;;;;;;;12.32;7.93;;;;;;;17.23;53.30;101649.50;5027104;28;20080;-36
2023/12/20 01:49:45;;;;;;;12.80;7.68;;;;;;;17.22;53.42;101641.59;5033191;28;20053;-38
2023/12/20 01:52:12;;;;;;;11.73;7.18;;;;;;;17.21;52.92;101645.28;5028715;28;20188;-35
2023/12/20 01:54:41;;;;;;;10.18;6.80;;;;;;;17.20;53.11;101644.41;5031556;28;20594;-37
2023/12/20 01:57:08;;;;;;;11.95;7.38;;;;;;;17.18;53.30;101646.38;5027912;28;20132;-37
2023/12/20 01:59:35;;;;;;;11.27;7.10;;;;;;;17.19;52.94;101647.22;5028957;28;20395;-39
2023/12/20 02:02:03;;;;;;;11.43;7.30;;;;;;;17.16;53.02;101648.31;5030983;28;20212;-37
2023/12/20 02:04:30;;;;;;;10.95;7.15;;;;;;;17.15;52.92;101643.94;5026107;28;20104;-36
2023/12/20 02:06:58;;;;;;;10.57;6.75;;;;;;;17.15;53.26;101643.94;5028777;28;20084;-38
2023/12/20 02:09:26;;;;;;;11.85;7.13;;;;;;;17.14;53.39;101639.56;5032638;28;20146;-35
2023/12/20 02:11:54;;;;;;;10.00;6.20;;;;;;;17.13;52.91;101635.19;5028383;28;20049;-38
2023/12/20 02:14:20;;;;;;;12.07;7.05;;;;;;;17.12;53.28;101641.50;5032057;28;20049;-36
2023/12/20 02:16:48;;;;;;;8.77;5.72;;;;;;;17.12;53.45;101646.88;5029218;28;20500;-36
2023/12/20 02:19:15;;;;;;;10.85;6.30;;;;;;;17.12;53.79;101651.38;5028023;28;20489;-39
2023/12/20 02:21:42;;;;;;;9.98;6.32;;;;;;;17.11;53.55;101638.97;5031616;28;20053;-41
2023/12/20 02:24:09;;;;;;;10.88;6.47;;;;;;;17.10;53.66;101642.63;5032428;28;20154;-40
2023/12/20 02:26:35;;;;;;;8.57;5.55;;;;;;;17.08;53.13;101642.75;5027535;28;20045;-41
2023/12/20 02:29:02;;;;;;;9.80;6.07;;;;;;;17.04;53.78;101638.63;5026813;28;20341;-40
2023/12/20 02:31:29;;;;;;;11.50;6.03;;;;;;;17.03;53.34;101631.56;5031293;28;20060;-41
2023/12/20 02:33:55;;;;;;;8.57;5.43;;;;;;;17.06;53.54;101630.47;5031219;28;20524;-41
2023/12/20 02:36:22;;;;;;;9.23;5.82;;;;;;;17.11;53.39;101631.78;5028872;28;20053;-41
2023/12/20 02:38:50;;;;;;;10.90;5.40;;;;;;;17.15;53.49;101625.19;5026291;28;20046;-41
2023/12/20 02:41:18;;;;;;;9.90;5.70;;;;;;;17.21;53.20;101627.38;5035917;28;20049;-41
2023/12/20 02:43:45;;;;;;;7.95;5.28;;;;;;;17.28;53.35;101625.00;5036775;28;20357;-36
2023/12/20 02:46:13;;;;;;;8.70;5.10;;;;;;;17.35;53.38;101622.66;5034793;28;20080;-35
2023/12/20 02:48:40;;;;;;;8.50;5.10;;;;;;;17.40;53.12;101625.78;5034835;28;20615;-36
2023/12/20 02:51:07;;;;;;;8.63;4.40;;;;;;;17.42;52.82;101616.66;5029930;28;20049;-39
2023/12/20 02:53:33;;;;;;;9.38;5.18;;;;;;;17.46;52.79;101622.59;5033308;28;20404;-37
2023/12/20 02:56:00;;;;;;;8.70;5.05;;;;;;;17.46;52.80;101617.25;5031345;28;20052;-36
2023/12/20 02:58:26;;;;;;;7.97;4.50;;;;;;;17.44;53.23;101608.47;5032631;28;20053;-37
2023/12/20 03:00:54;;;;;;;8.02;4.40;;;;;;;17.42;52.81;101616.66;5030154;28;20111;-36
2023/12/20 03:03:20;;;;;;;7.10;4.40;;;;;;;17.39;53.04;101616.91;5035590;28;20128;-36
2023/12/20 03:05:47;;;;;;;9.63;4.70;;;;;;;17.38;52.88;101609.00;5031199;28;20104;-35
2023/12/20 03:08:13;;;;;;;9.73;4.70;;;;;;;17.36;52.95;101608.28;5036393;28;20044;-36
2023/12/20 03:10:40;;;;;;;8.80;4.80;;;;;;;17.32;52.96;101612.19;5035750;28;20076;-37
2023/12/20 03:13:07;;;;;;;10.40;4.55;;;;;;;17.32;52.70;101604.16;5032612;28;20060;-36
2023/12/20 03:15:33;;;;;;;9.23;4.40;;;;;;;17.29;52.97;101597.25;5032805;28;20437;-36
2023/12/20 03:18:00;;;;;;;8.00;4.78;;;;;;;17.26;53.12;101601.03;5036811;28;20098;-36
2023/12/20 03:20:27;;;;;;;9.23;4.40;;;;;;;17.24;53.20;101597.63;5036084;28;20053;-37
2023/12/20 03:22:53;;;;;;;8.35;4.25;;;;;;;17.23;52.81;101601.28;5033002;28;20411;-37
2023/12/20 03:25:20;;;;;;;7.07;4.28;;;;;;;17.22;53.03;101604.94;5035312;28;20085;-35
2023/12/20 03:27:46;;;;;;;9.80;4.30;;;;;;;17.21;53.05;101599.72;5033358;28;20434;-36
2023/12/20 03:30:14;;;;;;;7.97;3.95;;;;;;;17.19;53.31;101599.84;5032812;28;20053;-35
2023/12/20 03:32:41;;;;;;;6.68;3.75;;;;;;;17.18;53.64;101600.81;5030327;28;20057;-36
2023/12/20 03:35:07;;;;;;;8.60;4.10;;;;;;;17.17;53.01;101612.53;5032068;28;20053;-39
2023/12/20 03:37:34;;;;;;;6.78;3.75;;;;;;;17.16;53.08;101608.13;5028910;28;20064;-36
2023/12/20 03:40:01;;;;;;;6.95;3.72;;;;;;;17.14;53.26;101596.72;5037239;28;20152;-42
2023/12/20 03:42:27;;;;;;;10.32;3.90;;;;;;;17.13;53.12;101600.38;5031260;28;20131;-40
2023/12/20 03:44:54;;;;;;;8.63;3.83;;;;;;;17.11;53.29;101607.69;5032241;28;20084;-40
2023/12/20 03:47:20;;;;;;;7.25;3.47;;;;;;;17.09;53.77;101606.13;5031345;28;20133;-42
2023/12/20 03:49:47;;;;;;;6.47;3.38;;;;;;;17.09;53.75;101611.47;5037314;28;20050;-42
2023/12/20 03:52:14;;;;;;;8.35;3.67;;;;;;;17.10;53.68;101613.16;5031917;28;20471;-40
2023/12/20 03:54:42;;;;;;;8.73;4.30;;;;;;;17.13;53.42;101605.72;5032387;28;20045;-41
2023/12/20 03:57:09;;;;;;;7.13;3.53;;;;;;;17.16;53.45;101609.97;5033876;28;20056;-40
2023/12/20 03:59:36;;;;;;;6.93;3.25;;;;;;;17.19;53.71;101604.34;5034637;28;20088;-41
2023/12/20 04:02:03;;;;;;;8.23;3.65;;;;;;;17.24;53.24;101602.97;5033208;28;20127;-41
2023/12/20 04:04:30;;;;;;;8.13;3.53;;;;;;;17.31;53.18;101603.31;5035494;28;20044;-37
2023/12/20 04:06:57;;;;;;;6.57;3.20;;;;;;;17.36;52.88;101605.59;5036139;28;20068;-37
2023/12/20 04:09:23;;;;;;;6.85;3.03;;;;;;;17.42;52.95;101602.41;5028324;28;20089;-38
2023/12/20 04:11:51;;;;;;;6.50;2.90;;;;;;;17.44;52.57;101593.22;5033973;28;20057;-36
2023/12/20 04:14:17;;;;;;;6.00;3.22;;;;;;;17.48;52.56;101591.16;5031157;28;20048;-36
2023/12/20 04:16:44;;;;;;;5.35;3.08;;;;;;;17.50;52.53;101591.88;5034497;28;20650;-36
2023/12/20 04:19:13;;;;;;;7.60;3.15;;;;;;;17.48;52.41;101578.59;5034833;28;20073;-37
2023/12/20 04:21:40;;;;;;;7.18;3.30;;;;;;;17.46;52.67;101591.28;5035762;28;20045;-36
2023/12/20 04:24:06;;;;;;;7.82;2.80;;;;;;;17.43;52.64;101594.22;5029383;28;20057;-37
2023/12/20 04:26:33;;;;;;;9.68;3.03;;;;;;;17.41;52.80;101590.00;5026674;28;20126;-36
2023/12/20 04:29:00;;;;;;;6.53;3.00;;;;;;;17.38;52.42;101582.22;5031074;28;20041;-37
2023/12/20 04:31:26;;;;;;;7.32;3.08;;;;;;;17.37;52.66;101575.16;5031246;28;20053;-36
2023/12/20 04:33:53;;;;;;;5.50;2.75;;;;;;;17.35;52.62;101579.78;5030882;28;21497;-36
2023/12/20 04:36:19;;;;;;;6.05;2.85;;;;;;;17.33;52.74;101585.28;5033777;28;20614;-37
2023/12/20 04:38:46;;;;;;;5.93;2.28;;;;;;;17.31;53.18;101587.22;5032271;28;20695;-36
2023/12/20 04:41:15;;;;;;;6.47;2.75;;;;;;;17.28;52.78;101580.28;5034424;28;20060;-36
2023/12/20 04:43:42;;;;;;;8.52;2.67;;;;;;;17.25;53.08;101580.59;5028465;28;20654;-37
2023/12/20 04:46:09;;;;;;;7.45;2.67;;;;;;;17.25;53.06;101577.06;5030647;28;20056;-37
2023/12/20 04:48:35;;;;;;;7.20;3.05;;;;;;;17.22;53.19;101578.16;5028983;28;20487;-38
2023/12/20 04:51:02;;;;;;;4.85;2.33;;;;;;;17.21;53.15;101578.28;5030483;28;20049;-36
2023/12/20 04:53:29;;;;;;;7.35;2.85;;;;;;;17.19;53.45;101575.72;5032077;28;20049;-36
2023/12/20 04:55:55;;;;;;;6.15;2.78;;;;;;;17.18;52.80;101584.75;5033568;28;20107;-37
2023/12/20 04:58:22;;;;;;;5.80;2.55;;;;;;;17.17;52.77;101575.03;5029395;28;20129;-37
2023/12/20 05:00:48;;;;;;;7.72;2.65;;;;;;;17.17;52.96;101576.88;5033862;28;20049;-36
2023/12/20 05:03:15;;;;;;;6.35;2.50;;;;;;;17.15;53.01;101571.63;5031963;28;20352;-41
2023/12/20 05:05:42;;;;;;;9.15;3.50;;;;;;;17.15;52.95;101574.28;5028681;28;20552;-39
2023/12/20 05:08:08;;;;;;;7.10;3.03;;;;;;;17.16;53.46;101561.75;5023939;28;20045;-40
2023/12/20 05:10:36;;;;;;;8.75;3.22;;;;;;;17.14;53.37;101559.22;5027594;28;20057;-40
2023/12/20 05:13:03;;;;;;;9.55;3.67;;;;;;;17.13;53.33;101562.03;5025848;28;20437;-41
2023/12/20 05:15:29;;;;;;;8.85;3.80;;;;;;;17.10;53.06;101571.16;5028012;28;20124;-41
2023/12/20 05:17:56;;;;;;;8.95;3.90;;;;;;;17.09;53.58;101568.63;5026902;28;20045;-41
2023/12/20 05:20:23;;;;;;;8.13;3.63;;;;;;;17.12;53.14;101571.88;5028792;28;20057;-40
2023/12/20 05:22:50;;;;;;;10.73;5.05;;;;;;;17.16;53.14;101583.16;5025044;28;20315;-41
2023/12/20 05:25:17;;;;;;;11.32;5.05;;;;;;;17.19;53.41;101570.38;5023489;28;20426;-41
2023/12/20 05:27:43;;;;;;;12.02;5.75;;;;;;;17.24;52.64;101570.81;5024830;28;20038;-36
2023/12/20 05:30:11;;;;;;;11.00;6.05;;;;;;;17.29;53.25;101575.81;5017488;28;20145;-36
2023/12/20 05:32:37;;;;;;;11.40;6.45;;;;;;;17.35;52.96;101567.22;5021556;28;20103;-38
2023/12/20 05:35:04;;;;;;;14.30;6.93;;;;;;;17.40;52.33;101566.84;5024034;28;20041;-36
2023/12/20 05:37:31;;;;;;;14.68;6.65;;;;;;;17.43;52.78;101569.25;5022016;28;20133;-36
2023/12/20 05:39:57;;;;;;;15.23;7.20;;;;;;;17.45;52.46;101576.19;5026634;28;20049;-36
2023/12/20 05:42:24;;;;;;;18.08;7.65;;;;;;;17.44;52.70;101577.16;5019689;28;20050;-36
2023/12/20 05:44:51;;;;;;;16.88;7.55;;;;;;;17.44;52.63;101566.44;5021242;28;20516;-35
2023/12/20 05:47:21;;;;;;;15.35;7.68;;;;;;;17.42;52.38;101567.56;5022203;28;20631;-37
2023/12/20 05:49:47;;;;;;;15.13;8.13;;;;;;;17.38;52.74;101566.97;5022594;28;20099;-37
2023/12/20 05:52:14;;;;;;;16.90;8.68;;;;;;;17.37;52.42;101556.41;5023362;28;20045;-37
2023/12/20 05:54:42;;;;;;;17.73;8.48;;;;;;;17.35;52.73;101559.19;5023695;28;20059;-37
2023/12/20 05:57:08;;;;;;;16.45;9.43;;;;;;;17.34;52.44;101562.03;5027359;28;20055;-36
2023/12/20 05:59:35;;;;;;;17.52;9.40;;;;;;;17.32;52.39;101561.28;5027851;28;20049;-37
2023/12/20 06:02:03;;;;;;;16.88;8.55;;;;;;;17.29;52.42;101565.09;5025521;28;20126;-37
2023/12/20 06:04:30;;;;;;;18.23;8.73;;;;;;;17.27;52.73;101559.00;5022157;28;20053;-36
2023/12/20 06:06:57;;;;;;;17.90;8.98;;;;;;;17.27;52.55;101565.22;5023091;28;20460;-37
2023/12/20 06:09:23;;;;;;;20.30;9.43;;;;;;;17.25;52.62;101569.03;5024462;28;20145;-37
2023/12/20 06:11:50;;;;;;;19.20;9.68;;;;;;;17.23;53.07;101560.25;5024653;28;20103;-38
2023/12/20 06:14:17;;;;;;;16.42;9.20;;;;;;;17.22;52.33;101566.59;5029397;28;20452;-37
2023/12/20 06:16:45;;;;;;;15.88;8.93;;;;;;;17.21;52.44;101571.09;5027219;28;20133;-36
2023/12/20 06:19:11;;;;;;;17.63;9.13;;;;;;;17.20;52.70;101563.19;5033771;28;20042;-36
2023/12/20 06:21:38;;;;;;;15.95;9.32;;;;;;;17.19;53.26;101561.50;5032492;28;20107;-37
2023/12/20 06:24:09;;;;;;;19.48;9.73;;;;;;;17.19;52.37;101558.81;5034509;28;20055;-36
2023/12/20 06:26:36;;;;;;;19.33;9.82;;;;;;;17.17;53.20;101564.31;5034091;28;20081;-36
2023/12/20 06:29:02;;;;;;;16.65;9.00;;;;;;;17.16;52.81;101567.94;5034806;28;20154;-36
2023/12/20 06:31:29;;;;;;;16.15;9.20;;;;;;;17.17;52.74;101555.44;5031947;28;20061;-36
2023/12/20 06:33:57;;;;;;;18.77;9.43;;;;;;;17.15;53.21;101560.91;5029809;28;20364;-37
2023/12/20 06:36:24;;;;;;;19.35;10.43;;;;;;;17.14;52.72;101561.88;5024872;28;20060;-41
2023/12/20 06:38:51;;;;;;;17.92;9.18;;;;;;;17.15;52.79;101554.69;5024455;28;20045;-42
2023/12/20 06:41:18;;;;;;;19.98;9.85;;;;;;;17.16;52.97;101562.59;5035828;28;20103;-41
2023/12/20 06:43:45;;;;;;;19.13;9.43;;;;;;;17.19;52.98;101561.50;5032620;28;20361;-41
2023/12/20 06:46:16;;;;;;;19.02;9.63;;;;;;;17.23;52.79;101555.75;5024677;28;20045;-41
2023/12/20 06:48:43;;;;;;;18.35;9.00;;;;;;;17.33;52.88;101557.66;5029039;28;20123;-36
2023/12/20 06:51:17;;;;;;;16.27;8.90;;;;;;;17.40;52.65;101558.78;5031932;28;20049;-36
2023/12/20 06:53:43;;;;;;;14.00;8.23;;;;;;;17.46;52.64;101563.66;5029818;28;20131;-39
2023/12/20 06:56:11;;;;;;;18.15;9.05;;;;;;;17.49;52.42;101566.91;5031397;28;20502;-37
2023/12/20 06:58:42;;;;;;;16.55;8.57;;;;;;;17.51;52.22;101561.41;5029464;28;20045;-40
2023/12/20 07:01:13;;;;;;;14.65;8.77;;;;;;;17.53;52.40;101554.09;5031537;28;20050;-36
2023/12/20 07:03:42;;;;;;;14.98;7.75;;;;;;;17.53;52.37;101556.78;5024965;28;20107;-37
2023/12/20 07:06:09;;;;;;;15.35;8.23;;;;;;;17.49;51.98;101552.66;5026767;28;20056;-37
2023/12/20 07:08:36;;;;;;;14.75;8.20;;;;;;;17.46;52.55;101552.94;5025103;28;20382;-36
2023/12/20 07:11:03;;;;;;;13.93;7.55;;;;;;;17.43;52.35;101547.81;5025332;28;20124;-37
2023/12/20 07:13:30;;;;;;;14.73;7.88;;;;;;;17.41;52.37;101549.81;5027383;28;20620;-36
2023/12/20 07:15:56;;;;;;;15.52;8.05;;;;;;;17.39;52.24;101549.91;5028131;28;20049;-37
2023/12/20 07:18:23;;;;;;;14.50;7.88;;;;;;;17.35;52.19;101535.09;5047150;28;20045;-36
2023/12/20 07:20:50;;;;;;;16.08;7.72;;;;;;;17.35;52.13;101539.59;5037767;28;20073;-36
2023/12/20 07:23:17;;;;;;;13.88;7.63;;;;;;;17.32;52.40;101534.50;5028576;28;20100;-36
2023/12/20 07:25:43;;;;;;;16.25;7.63;;;;;;;17.31;52.31;101536.31;5025050;28;20111;-36
2023/12/20 07:28:10;;;;;;;16.70;7.30;;;;;;;17.28;52.37;101540.09;5026610;28;20037;-38
2023/12/20 07:30:37;;;;;;;15.05;7.05;;;;;;;17.26;52.84;101531.38;5026867;28;20058;-37
2023/12/20 07:33:04;;;;;;;15.38;7.78;;;;;;;17.25;52.65;101529.69;5027468;28;20349;-39
2023/12/20 07:35:30;;;;;;;14.25;7.03;;;;;;;17.24;52.41;101533.31;5027850;28;20049;-38
2023/12/20 07:37:58;;;;;;;13.93;7.07;;;;;;;17.23;52.49;101533.47;5022337;28;20353;-37
2023/12/20 07:40:24;;;;;;;13.63;7.30;;;;;;;17.22;52.60;101529.09;5027041;28;20049;-37
2023/12/20 07:42:51;;;;;;;15.38;7.60;;;;;;;17.23;52.63;101546.84;5028492;28;20432;-36
2023/12/20 07:45:18;;;;;;;14.60;7.03;;;;;;;17.21;52.69;101538.97;5021512;28;20053;-36
2023/12/20 07:47:45;;;;;;;12.35;6.63;;;;;;;17.20;52.10;101531.88;5023970;28;20136;-36
2023/12/20 07:50:12;;;;;;;12.00;5.75;;;;;;;17.20;52.66;101549.78;5025165;28;20128;-36
2023/12/20 07:52:39;;;;;;;13.30;7.30;;;;;;;17.18;52.60;101551.75;5031450;28;20057;-36
2023/12/20 07:55:06;;;;;;;14.63;6.90;;;;;;;17.18;52.70;101552.59;5024068;28;20053;-40
2023/12/20 07:57:32;;;;;;;11.00;5.88;;;;;;;17.18;52.59;101547.25;5026680;28;20054;-37
2023/12/20 07:59:59;;;;;;;14.45;6.25;;;;;;;17.18;52.37;101559.81;5027171;28;20124;-42
2023/12/20 08:02:26;;;;;;;10.75;5.68;;;;;;;17.17;53.03;101569.66;5029983;28;20057;-41
2023/12/20 08:04:52;;;;;;;13.95;7.25;;;;;;;17.15;52.19;101565.41;5025854;28;20053;-41
2023/12/20 08:07:19;;;;;;;10.95;5.95;;;;;;;17.13;52.22;101562.88;5027804;28;20385;-42
2023/12/20 08:09:46;;;;;;;11.27;5.32;;;;;;;17.12;51.96;101571.88;5026749;28;20124;-41
2023/12/20 08:12:12;;;;;;;9.60;5.45;;;;;;;17.11;52.94;101559.47;5022743;28;20421;-40
2023/12/20 08:14:39;;;;;;;15.38;6.35;;;;;;;17.07;52.79;101558.03;5030140;28;20384;-41
2023/12/20 08:17:05;;;;;;;13.73;5.68;;;;;;;17.03;52.98;101559.25;5020624;28;20378;-40
2023/12/20 08:19:32;;;;;;;14.40;6.03;;;;;;;16.99;52.47;101555.16;5022937;28;20153;-41
2023/12/20 08:21:59;;;;;;;10.65;5.28;;;;;;;16.95;53.01;101564.41;5023782;28;20483;-41
2023/12/20 08:24:25;;;;;;;11.65;5.53;;;;;;;16.90;53.11;101559.44;5024495;28;20053;-41
2023/12/20 08:26:52;;;;;;;12.20;5.65;;;;;;;16.87;53.29;101558.84;5025193;28;20106;-42
2023/12/20 08:29:19;;;;;;;13.95;6.53;;;;;;;16.83;53.43;101554.72;5025779;28;20753;-41
2023/12/20 08:31:46;;;;;;;14.32;5.82;;;;;;;16.78;53.63;101547.94;5025235;28;20448;-41
2023/12/20 08:34:14;;;;;;;9.73;4.90;;;;;;;16.74;53.54;101557.19;5030529;28;20610;-41
2023/12/20 08:36:41;;;;;;;11.38;5.63;;;;;;;16.73;53.24;101549.31;5024114;28;20045;-41
2023/12/20 08:39:08;;;;;;;10.57;5.40;;;;;;;16.71;53.65;101552.06;5022905;28;20052;-40
2023/12/20 08:41:36;;;;;;;10.95;5.78;;;;;;;16.70;53.65;101546.84;5024628;28;20057;-41
2023/12/20 08:44:03;;;;;;;9.52;4.68;;;;;;;16.70;53.87;101554.88;5025432;28;20056;-40
2023/12/20 08:46:30;;;;;;;10.20;4.50;;;;;;;16.69;53.56;101556.72;5022469;28;20116;-42
2023/12/20 08:48:57;;;;;;;11.88;4.68;;;;;;;16.68;53.99;101557.69;5024464;28;20419;-42
2023/12/20 08:51:25;;;;;;;9.45;5.15;;;;;;;16.68;53.47;101554.13;5023137;28;20053;-42
2023/12/20 08:53:52;;;;;;;9.27;4.80;;;;;;;16.66;53.28;101559.63;5025933;28;20053;-42
2023/12/20 08:56:18;;;;;;;10.18;4.72;;;;;;;16.65;53.90;101562.44;5025362;28;20136;-41
2023/12/20 08:58:48;;;;;;;12.88;5.55;;;;;;;16.62;53.52;101560.88;5022810;28;20073;-43
2023/12/20 09:01:15;;;;;;;9.57;4.32;;;;;;;16.60;53.25;101561.97;5024609;28;20049;-43
2023/12/20 09:03:42;;;;;;;8.68;4.43;;;;;;;16.57;54.29;101563.09;5040332;28;20132;-42
2023/12/20 09:06:09;;;;;;;12.90;4.32;;;;;;;16.56;54.16;101563.19;5025379;28;20564;-42
2023/12/20 09:08:35;;;;;;;9.07;3.80;;;;;;;16.53;54.49;101564.31;5023038;28;20049;-43
2023/12/20 09:11:02;;;;;;;11.00;4.45;;;;;;;16.58;53.94;101555.91;5026910;28;20135;-42
2023/12/20 09:13:29;;;;;;;13.25;4.28;;;;;;;16.68;54.89;101562.16;5031554;28;20052;-42
2023/12/20 09:15:56;;;;;;;11.77;4.38;;;;;;;16.80;54.44;101549.63;5025571;28;20057;-43
2023/12/20 09:18:23;;;;;;;9.30;4.63;;;;;;;16.91;54.30;101550.44;5025136;28;20483;-43
2023/12/20 09:20:50;;;;;;;11.57;4.93;;;;;;;17.03;53.74;101535.16;5026879;28;20084;-38
2023/12/20 09:23:18;;;;;;;14.52;5.18;;;;;;;17.13;54.31;101544.13;5026555;28;20371;-38
2023/12/20 09:25:44;;;;;;;11.82;4.70;;;;;;;17.22;53.67;101551.38;5025068;28;20091;-37
2023/12/20 09:28:11;;;;;;;14.05;5.13;;;;;;;17.32;53.32;101553.25;5022108;28;20384;-38
2023/12/20 09:30:39;;;;;;;18.25;5.28;;;;;;;17.40;53.87;101553.44;5022392;28;20144;-38
2023/12/20 09:33:07;;;;;;;10.57;5.00;;;;;;;17.45;54.00;101548.56;5028080;28;20501;-37
2023/12/20 09:35:34;;;;;;;13.02;5.28;;;;;;;17.48;53.66;101543.75;5023853;28;20662;-37
2023/12/20 09:38:01;;;;;;;14.48;5.78;;;;;;;17.52;53.48;101555.06;5024358;28;20056;-38
2023/12/20 09:40:28;;;;;;;17.60;5.90;;;;;;;17.53;53.50;101554.09;5024135;28;20098;-37
2023/12/20 09:42:55;;;;;;;11.68;4.70;;;;;;;17.52;53.83;101555.06;5021401;28;20045;-37
2023/12/20 09:45:22;;;;;;;15.07;5.25;;;;;;;17.52;53.54;101555.06;5028326;28;20433;-37
2023/12/20 09:47:52;;;;;;;19.48;6.07;;;;;;;17.48;53.62;101558.97;5022232;28;20341;-40
2023/12/20 09:50:20;;;;;;;17.38;4.90;;;;;;;17.45;53.64;101552.09;5020866;28;20086;-39
2023/12/20 09:52:53;;;;;;;12.00;5.60;;;;;;;17.44;53.70;101552.19;5020569;28;20053;-39
2023/12/20 09:55:21;;;;;;;15.45;5.43;;;;;;;17.43;54.10;101558.53;5025784;28;20077;-37
2023/12/20 09:57:48;;;;;;;14.70;5.38;;;;;;;17.41;53.83;101572.09;5024138;28;20060;-37
2023/12/20 10:00:17;;;;;;;13.07;5.05;;;;;;;17.40;53.76;101566.84;5022296;28;20061;-37
2023/12/20 10:02:56;;;;;;;19.23;4.93;;;;;;;17.38;53.91;101566.13;5022378;28;20052;-38
2023/12/20 10:05:31;;;;;;;15.75;5.07;;;;;;;17.38;53.94;101560.78;5024012;28;20353;-37
2023/12/20 10:07:59;;;;;;;11.65;4.72;;;;;;;17.38;53.96;101566.13;5024079;28;20312;-37
2023/12/20 10:10:27;;;;;;;14.40;5.15;;;;;;;17.37;53.83;101567.13;5025148;28;20057;-38
2023/12/20 10:13:10;;;;;;;14.15;5.13;;;;;;;17.37;53.72;101559.09;5023194;28;20060;-39
2023/12/20 10:15:38;;;;;;;15.25;4.90;;;;;;;17.36;53.56;101560.88;5023270;28;20050;-37
2023/12/20 10:18:05;;;;;;;12.70;4.22;;;;;;;17.36;53.97;101565.41;5015810;28;20042;-38
2023/12/20 10:20:32;;;;;;;10.85;4.30;;;;;;;17.34;54.28;101564.69;5022722;28;20061;-37
2023/12/20 10:23:00;;;;;;;9.48;4.03;;;;;;;17.34;53.80;101556.66;5020467;28;20129;-37
2023/12/20 10:25:27;;;;;;;12.80;4.38;;;;;;;17.34;54.22;101564.69;5030974;28;20057;-37
2023/12/20 10:28:12;;;;;;;11.35;4.25;;;;;;;17.33;54.04;101560.31;5020717;28;20049;-39
2023/12/20 10:30:41;;;;;;;14.77;4.40;;;;;;;17.34;54.52;101564.69;5023908;28;20045;-37
2023/12/20 10:33:08;;;;;;;12.38;4.22;;;;;;;17.34;54.32;101570.06;5021312;28;20049;-37
2023/12/20 10:35:38;;;;;;;13.18;3.95;;;;;;;17.33;54.19;101563.00;5026889;28;20049;-38
2023/12/20 10:38:11;;;;;;;11.95;4.30;;;;;;;17.32;54.16;101556.78;5026023;28;20608;-38
2023/12/20 10:40:38;;;;;;;10.75;4.18;;;;;;;17.33;54.20;101555.81;5026449;28;20060;-39
2023/12/20 10:43:05;;;;;;;10.15;3.45;;;;;;;17.34;54.39;101545.94;5022859;28;20046;-37
2023/12/20 10:45:32;;;;;;;11.57;4.03;;;;;;;17.32;54.79;101546.06;5019436;28;20590;-38
2023/12/20 10:48:01;;;;;;;10.18;3.85;;;;;;;17.35;54.59;101539.59;5021670;28;20046;-37
2023/12/20 10:50:29;;;;;;;11.60;3.60;;;;;;;17.37;54.63;101526.94;5018425;28;20050;-37
2023/12/20 10:52:57;;;;;;;13.35;4.07;;;;;;;17.39;54.65;101523.13;5020907;28;20053;-39
2023/12/20 10:55:25;;;;;;;9.10;3.25;;;;;;;17.42;54.73;101527.38;5023433;28;20077;-37
2023/12/20 10:57:58;;;;;;;9.43;3.92;;;;;;;17.44;54.81;101520.03;5023174;28;20326;-37
2023/12/20 11:00:26;;;;;;;8.60;3.70;;;;;;;17.45;54.76;101524.44;5026430;28;20041;-40
2023/12/20 11:02:55;;;;;;;7.75;3.47;;;;;;;17.47;54.67;101519.78;5023720;28;20137;-39
2023/12/20 11:05:48;;;;;;;9.13;3.22;;;;;;;17.47;54.66;101533.16;5015799;28;20353;-39
2023/12/20 11:08:28;;;;;;;10.95;3.35;;;;;;;17.50;54.54;101527.56;5022427;28;20054;-37
2023/12/20 11:11:05;;;;;;;8.25;2.92;;;;;;;17.52;54.70;101528.25;5023663;28;20054;-37
2023/12/20 11:13:39;;;;;;;10.85;2.90;;;;;;;17.52;54.54;101526.41;5028465;28;20049;-37
2023/12/20 11:16:06;;;;;;;6.85;2.95;;;;;;;17.52;54.21;101523.75;5029267;28;20085;-38
2023/12/20 11:18:32;;;;;;;11.45;3.00;;;;;;;17.52;54.43;101518.38;5024078;28;20045;-38
2023/12/20 11:21:04;;;;;;;11.32;3.25;;;;;;;17.53;54.04;101521.94;5032167;28;20058;-37